Time;durP1;ratioP1;P1;durP2;ratioP2;P2;SDS_P1;SDS_P2;PMS_P1;PMS_P2;Temp;Humidity;BMP_temperature;BMP_pressure;BME280_temperature;BME280_humidity;BME280_pressure;Samples;Min_cycle;Max_cycle;Signal;HPM_P1;HPM_P2
2022/03/21 00:00:46;;;;;;;15.80;11.35;;;;;;;17.20;43.79;103069.84;5018733;28;20174;-40
2022/03/21 00:03:15;;;;;;;18.02;11.73;;;;;;;17.22;43.06;103073.31;5015426;28;20140;-39
2022/03/21 00:05:45;;;;;;;15.20;11.30;;;;;;;17.21;43.40;103065.38;5019869;28;20048;-40
2022/03/21 00:08:14;;;;;;;15.82;11.32;;;;;;;17.20;43.76;103074.34;5019813;28;20148;-40
2022/03/21 00:10:41;;;;;;;15.85;10.70;;;;;;;17.21;43.61;103076.09;5016645;28;20048;-40
2022/03/21 00:13:09;;;;;;;14.27;10.45;;;;;;;17.20;43.71;103079.72;5016026;28;20191;-40
2022/03/21 00:15:35;;;;;;;16.75;10.65;;;;;;;17.19;43.94;103076.19;5017641;28;20056;-40
2022/03/21 00:18:04;;;;;;;16.15;11.25;;;;;;;17.18;43.50;103071.78;5017529;28;20162;-39
2022/03/21 00:20:32;;;;;;;13.00;9.80;;;;;;;17.18;43.39;103082.50;5018610;28;20425;-40
2022/03/21 00:22:59;;;;;;;13.65;10.35;;;;;;;17.19;43.81;103083.34;5020098;28;20076;-39
2022/03/21 00:25:26;;;;;;;15.43;10.73;;;;;;;17.18;43.97;103087.00;5016384;28;20444;-39
2022/03/21 00:27:54;;;;;;;18.00;10.65;;;;;;;17.16;43.67;103076.34;5017294;28;20321;-39
2022/03/21 00:30:21;;;;;;;17.48;10.68;;;;;;;17.15;43.93;103071.97;5023576;28;20051;-39
2022/03/21 00:32:48;;;;;;;16.20;11.25;;;;;;;17.15;44.08;103071.97;5022084;28;20119;-40
2022/03/21 00:35:17;;;;;;;16.23;10.35;;;;;;;17.14;43.39;103072.06;5019201;28;20067;-39
2022/03/21 00:37:45;;;;;;;15.48;10.60;;;;;;;17.14;43.71;103072.94;5024544;28;20669;-40
2022/03/21 00:40:14;;;;;;;14.13;10.35;;;;;;;17.12;43.88;103074.81;5023580;28;20072;-40
2022/03/21 00:42:42;;;;;;;15.68;10.95;;;;;;;17.13;44.28;103073.03;5021089;28;20133;-41
2022/03/21 00:45:15;;;;;;;14.32;10.27;;;;;;;17.10;43.66;103070.53;5022286;28;20067;-40
2022/03/21 00:47:43;;;;;;;15.32;10.60;;;;;;;17.09;43.74;103080.38;5018263;28;20128;-40
2022/03/21 00:50:11;;;;;;;14.23;10.43;;;;;;;17.10;43.91;103079.44;5020522;28;20073;-40
2022/03/21 00:52:43;;;;;;;14.43;9.73;;;;;;;17.11;43.93;103080.28;5018077;28;20065;-40
2022/03/21 00:55:11;;;;;;;15.48;10.40;;;;;;;17.12;44.10;103084.69;5018825;28;20061;-40
2022/03/21 00:57:40;;;;;;;15.38;10.50;;;;;;;17.11;43.87;103077.59;5017070;28;20360;-40
2022/03/21 01:00:13;;;;;;;14.18;10.05;;;;;;;17.11;43.19;103080.28;5023726;28;20558;-40
2022/03/21 01:02:40;;;;;;;14.52;10.25;;;;;;;17.10;44.42;103081.25;5020902;28;20072;-40
2022/03/21 01:05:09;;;;;;;12.90;9.68;;;;;;;17.09;43.64;103082.22;5017507;28;20053;-41
2022/03/21 01:07:36;;;;;;;15.05;10.98;;;;;;;17.08;44.04;103083.13;5022214;28;20129;-40
2022/03/21 01:10:04;;;;;;;14.63;10.32;;;;;;;17.08;43.97;103086.69;5024582;28;20069;-40
2022/03/21 01:12:32;;;;;;;13.65;9.93;;;;;;;17.07;43.44;103078.75;5018551;28;20433;-40
2022/03/21 01:14:59;;;;;;;14.43;9.80;;;;;;;17.07;43.54;103089.47;5019139;28;20124;-40
2022/03/21 01:17:26;;;;;;;16.63;10.85;;;;;;;17.05;43.68;103084.22;5021112;28;20041;-40
2022/03/21 01:19:53;;;;;;;14.75;9.45;;;;;;;17.07;43.76;103094.81;5022880;28;20132;-40
2022/03/21 01:22:20;;;;;;;13.02;9.73;;;;;;;17.05;44.38;103089.56;5020674;28;20394;-40
2022/03/21 01:24:46;;;;;;;13.43;9.73;;;;;;;17.03;43.64;103096.81;5019691;28;20405;-40
2022/03/21 01:27:13;;;;;;;15.02;10.98;;;;;;;17.02;43.31;103101.31;5020965;28;20136;-40
2022/03/21 01:29:39;;;;;;;14.15;10.65;;;;;;;17.01;43.86;103096.94;5021563;28;20081;-40
2022/03/21 01:32:06;;;;;;;14.20;10.32;;;;;;;17.01;44.00;103096.94;5019241;28;20164;-40
2022/03/21 01:34:33;;;;;;;14.45;9.80;;;;;;;17.00;43.56;103097.88;5019990;28;20065;-40
2022/03/21 01:36:59;;;;;;;17.15;10.68;;;;;;;16.98;43.74;103097.09;5019338;28;20042;-40
2022/03/21 01:39:31;;;;;;;13.85;10.15;;;;;;;16.97;44.14;103084.66;5022777;28;20480;-40
2022/03/21 01:41:58;;;;;;;12.32;9.43;;;;;;;16.97;44.03;103083.81;5019763;28;20385;-40
2022/03/21 01:44:24;;;;;;;12.73;9.65;;;;;;;16.97;44.10;103095.38;5021412;28;20133;-40
2022/03/21 01:46:51;;;;;;;12.98;9.38;;;;;;;16.95;43.80;103096.41;5019520;28;20128;-40
2022/03/21 01:49:17;;;;;;;15.25;10.43;;;;;;;16.95;43.73;103096.41;5016133;28;20063;-40
2022/03/21 01:51:44;;;;;;;14.85;10.10;;;;;;;16.94;44.12;103103.59;5021762;28;20038;-40
2022/03/21 01:56:57;;;;;;;13.55;9.70;;;;;;;16.94;43.85;103097.38;5018189;28;20340;-40
2022/03/21 01:59:24;;;;;;;13.95;9.82;;;;;;;16.92;44.14;103093.91;5018935;28;20336;-40
2022/03/21 02:01:51;;;;;;;14.40;10.30;;;;;;;16.92;44.10;103088.56;5019722;28;20060;-40
2022/03/21 02:04:18;;;;;;;11.00;8.65;;;;;;;16.92;43.66;103085.88;5023635;28;20245;-40
2022/03/21 02:06:45;;;;;;;13.43;10.05;;;;;;;16.90;43.62;103099.38;5020902;28;20055;-40
2022/03/21 02:09:13;;;;;;;13.05;10.25;;;;;;;16.90;44.32;103099.38;5019053;28;20046;-40
2022/03/21 02:11:40;;;;;;;16.55;10.02;;;;;;;16.90;44.22;103099.38;5019052;28;20044;-40
2022/03/21 02:14:09;;;;;;;14.60;10.40;;;;;;;16.89;43.39;103099.47;5025705;28;20116;-40
2022/03/21 02:16:37;;;;;;;14.20;10.27;;;;;;;16.89;43.75;103100.34;5027342;28;20041;-40
2022/03/21 02:19:08;;;;;;;13.95;10.43;;;;;;;16.88;43.77;103087.00;5021039;28;20129;-40
2022/03/21 02:21:54;;;;;;;13.90;10.15;;;;;;;16.89;43.57;103088.75;5021844;28;20437;-40
2022/03/21 02:24:46;;;;;;;14.13;9.88;;;;;;;16.87;44.56;103090.66;5021873;28;20089;-40
2022/03/21 02:27:15;;;;;;;15.43;11.20;;;;;;;16.89;43.88;103088.75;5013182;28;20053;-40
2022/03/21 02:29:43;;;;;;;14.38;10.75;;;;;;;16.87;43.79;103088.84;5023707;28;20496;-40
2022/03/21 02:32:09;;;;;;;15.55;10.50;;;;;;;16.87;43.83;103096.00;5024375;28;20747;-40
2022/03/21 02:34:38;;;;;;;14.00;10.00;;;;;;;16.86;43.86;103094.28;5025805;28;20072;-40
2022/03/21 02:37:07;;;;;;;12.60;9.25;;;;;;;16.86;44.08;103094.28;5026588;28;22091;-40
2022/03/21 02:39:36;;;;;;;14.25;10.18;;;;;;;16.86;44.21;103089.78;5023933;28;20041;-40
2022/03/21 02:42:04;;;;;;;14.32;10.48;;;;;;;16.85;44.42;103092.56;5022580;28;20132;-40
2022/03/21 02:44:38;;;;;;;13.85;10.32;;;;;;;16.84;43.78;103088.16;5027102;28;20045;-40
2022/03/21 02:47:06;;;;;;;17.45;10.82;;;;;;;16.83;43.83;103091.78;5022027;28;20221;-40
2022/03/21 02:49:33;;;;;;;17.02;11.63;;;;;;;16.80;43.87;103098.19;5019821;28;20864;-40
2022/03/21 02:52:04;;;;;;;15.40;10.88;;;;;;;16.79;44.27;103096.47;5020618;28;20059;-40
2022/03/21 02:54:31;;;;;;;16.23;11.80;;;;;;;16.78;44.40;103095.59;5024105;28;20128;-40
2022/03/21 02:56:58;;;;;;;16.73;11.52;;;;;;;16.78;44.01;103106.31;5020366;28;20099;-40
2022/03/21 02:59:25;;;;;;;17.95;12.23;;;;;;;16.74;44.35;103104.78;5021834;28;20051;-40
2022/03/21 03:01:53;;;;;;;19.13;12.13;;;;;;;16.71;44.00;103107.59;5021040;28;20046;-40
2022/03/21 03:04:22;;;;;;;19.15;13.32;;;;;;;16.71;43.74;103104.03;5020883;28;20063;-40
2022/03/21 03:06:48;;;;;;;17.95;12.02;;;;;;;16.69;43.47;103105.97;5023515;28;20042;-40
2022/03/21 03:09:15;;;;;;;16.10;12.50;;;;;;;16.69;42.88;103111.31;5021748;28;20124;-40
2022/03/21 03:11:41;;;;;;;16.13;12.38;;;;;;;16.68;43.55;103110.47;5023658;28;20060;-40
2022/03/21 03:14:08;;;;;;;18.90;12.68;;;;;;;16.67;43.79;103113.22;5019479;28;20044;-40
2022/03/21 03:16:35;;;;;;;18.15;12.15;;;;;;;16.68;43.22;103114.94;5022902;28;20487;-40
2022/03/21 03:19:02;;;;;;;18.77;12.65;;;;;;;16.67;43.52;103118.56;5021824;28;20675;-40
2022/03/21 03:21:33;;;;;;;16.23;11.27;;;;;;;16.67;43.28;103118.56;5021225;28;20041;-40
2022/03/21 03:24:00;;;;;;;17.52;12.10;;;;;;;16.66;43.70;103112.34;5024103;28;20041;-40
2022/03/21 03:26:27;;;;;;;18.98;12.73;;;;;;;16.66;43.55;103111.50;5024296;28;20048;-40
2022/03/21 03:28:53;;;;;;;19.05;12.85;;;;;;;16.66;43.01;103111.50;5021049;28;20124;-40
2022/03/21 03:31:20;;;;;;;18.85;12.15;;;;;;;16.65;44.01;103115.13;5021501;28;20474;-40
2022/03/21 03:33:47;;;;;;;18.00;12.48;;;;;;;16.63;43.72;103112.53;5023051;28;20492;-40
2022/03/21 03:36:15;;;;;;;17.73;13.23;;;;;;;16.64;43.37;103124.09;5024308;28;20047;-40
2022/03/21 03:38:46;;;;;;;19.25;12.93;;;;;;;16.62;43.34;103128.69;5020226;28;21901;-40
2022/03/21 03:41:14;;;;;;;17.52;12.07;;;;;;;16.61;43.38;103121.63;5021503;28;20107;-40
2022/03/21 03:43:43;;;;;;;17.27;12.20;;;;;;;16.60;43.37;103127.91;5027953;28;20060;-40
2022/03/21 03:46:10;;;;;;;18.38;13.43;;;;;;;16.58;42.92;103128.00;5022581;28;20044;-40
2022/03/21 03:48:38;;;;;;;16.88;12.75;;;;;;;16.56;43.78;103121.84;5018602;28;20128;-40
2022/03/21 03:51:05;;;;;;;19.13;13.20;;;;;;;16.56;43.05;103121.84;5023852;28;20497;-40
2022/03/21 03:53:33;;;;;;;16.88;11.90;;;;;;;16.56;43.27;103121.84;5024013;28;20045;-40
2022/03/21 03:56:00;;;;;;;20.42;13.85;;;;;;;16.56;43.97;103126.34;5019556;28;20107;-40
2022/03/21 03:58:26;;;;;;;17.67;12.70;;;;;;;16.54;43.75;103121.97;5022171;28;20065;-40
2022/03/21 04:00:53;;;;;;;19.42;13.73;;;;;;;16.53;43.40;103122.06;5024355;28;20045;-40
2022/03/21 04:06:06;;;;;;;17.90;12.55;;;;;;;16.54;42.98;103131.81;5021334;28;20037;-40
2022/03/21 04:08:32;;;;;;;14.95;11.13;;;;;;;16.56;44.12;103129.03;5020418;28;20077;-40
2022/03/21 04:10:59;;;;;;;17.20;12.20;;;;;;;16.60;44.13;103123.41;5022389;28;20065;-40
2022/03/21 04:13:25;;;;;;;17.05;11.95;;;;;;;16.66;44.12;103128.41;5023732;28;20045;-40
2022/03/21 04:15:52;;;;;;;17.73;12.18;;;;;;;16.72;43.52;103127.19;5021104;28;20058;-40
2022/03/21 04:18:20;;;;;;;19.33;12.80;;;;;;;16.79;43.62;103120.56;5021910;28;20085;-40
2022/03/21 04:20:56;;;;;;;18.90;12.10;;;;;;;16.86;43.56;103129.97;5021275;28;20045;-40
2022/03/21 04:23:23;;;;;;;18.88;12.68;;;;;;;16.94;43.75;103121.50;5019125;28;20430;-40
2022/03/21 04:25:49;;;;;;;18.50;11.65;;;;;;;17.01;43.60;103121.03;5021083;28;20049;-40
2022/03/21 04:28:16;;;;;;;16.33;11.23;;;;;;;17.09;42.94;103123.25;5021379;28;21139;-40
2022/03/21 04:30:43;;;;;;;18.48;12.55;;;;;;;17.17;42.91;103130.84;5022852;28;20140;-40
2022/03/21 04:33:14;;;;;;;15.30;11.13;;;;;;;17.23;43.30;103131.31;5022576;28;20051;-40
2022/03/21 04:35:42;;;;;;;17.27;12.23;;;;;;;17.34;43.51;103127.13;5020597;28;20534;-40
2022/03/21 04:38:14;;;;;;;18.45;11.88;;;;;;;17.40;42.83;103129.44;5023895;28;20045;-40
2022/03/21 04:40:46;;;;;;;16.58;10.98;;;;;;;17.47;42.67;103133.47;5023037;28;20068;-40
2022/03/21 04:43:14;;;;;;;16.13;11.48;;;;;;;17.55;42.74;103136.53;5021567;28;20052;-40
2022/03/21 04:45:46;;;;;;;17.17;11.68;;;;;;;17.62;42.88;103135.22;5026786;28;20123;-40
2022/03/21 04:48:14;;;;;;;15.13;11.10;;;;;;;17.67;42.93;103135.78;5020365;28;20337;-40
2022/03/21 04:50:41;;;;;;;17.80;11.50;;;;;;;17.73;42.56;103137.22;5021036;28;20084;-40
2022/03/21 04:53:08;;;;;;;17.20;11.95;;;;;;;17.77;42.58;103141.47;5022771;28;20436;-40
2022/03/21 04:55:35;;;;;;;18.10;10.65;;;;;;;17.81;42.86;103139.44;5021464;28;20037;-40
2022/03/21 04:58:01;;;;;;;15.80;11.18;;;;;;;17.83;42.33;103145.59;5018173;28;20048;-40
2022/03/21 05:00:28;;;;;;;15.10;10.77;;;;;;;17.84;41.97;103149.97;5019706;28;20077;-40
2022/03/21 05:02:55;;;;;;;15.07;10.18;;;;;;;17.84;42.36;103149.97;5026220;28;21571;-40
2022/03/21 05:05:23;;;;;;;16.33;11.13;;;;;;;17.82;42.35;103147.41;5024234;28;20068;-40
2022/03/21 05:07:52;;;;;;;16.10;11.00;;;;;;;17.80;42.45;103154.69;5021526;28;20052;-40
2022/03/21 05:10:21;;;;;;;15.48;10.63;;;;;;;17.78;42.08;103153.06;5026867;28;20081;-40
2022/03/21 05:12:50;;;;;;;23.23;10.23;;;;;;;17.73;42.45;103154.19;5025981;28;20045;-40
2022/03/21 05:15:17;;;;;;;18.15;11.05;;;;;;;17.71;42.48;103156.09;5020655;28;20053;-40
2022/03/21 05:17:45;;;;;;;16.15;10.65;;;;;;;17.69;42.34;103146.44;5017785;28;20374;-40
2022/03/21 05:20:18;;;;;;;14.88;10.30;;;;;;;17.67;42.17;103156.38;5020696;28;20136;-40
2022/03/21 05:30:57;;;;;;;16.83;10.25;;;;;;;17.63;42.19;103155.69;5013942;28;20049;-40
2022/03/21 05:31:09;;;;;;;17.83;10.63;;;;;;;17.55;41.89;103157.13;5025351;28;20136;-40
2022/03/21 05:36:28;;;;;;;18.90;11.23;;;;;;;17.48;42.04;103151.28;5021984;28;20156;-40
2022/03/21 05:38:56;;;;;;;17.23;11.50;;;;;;;17.46;42.19;103155.88;5021954;28;20057;-40
2022/03/21 05:41:23;;;;;;;24.70;13.15;;;;;;;17.43;42.78;103156.91;5023821;28;20393;-40
2022/03/21 05:43:50;;;;;;;15.52;10.80;;;;;;;17.41;42.13;103163.34;5024940;28;20120;-40
2022/03/21 05:46:17;;;;;;;19.05;12.10;;;;;;;17.39;42.18;103162.56;5024372;28;20099;-40
2022/03/21 05:48:59;;;;;;;16.65;11.80;;;;;;;17.37;42.06;103162.66;5028256;28;20045;-40
2022/03/21 05:51:30;;;;;;;16.48;11.23;;;;;;;17.34;42.41;103165.53;5024093;28;20321;-40
2022/03/21 05:53:59;;;;;;;15.57;10.98;;;;;;;17.33;42.87;103165.63;5026317;28;20054;-40
2022/03/21 05:56:27;;;;;;;25.55;12.52;;;;;;;17.28;43.23;103163.19;5025452;28;20060;-40
2022/03/21 05:58:55;;;;;;;21.48;12.63;;;;;;;17.27;42.88;103158.78;5019733;28;20184;-40
2022/03/21 06:01:22;;;;;;;26.83;12.65;;;;;;;17.24;43.10;103167.00;5023806;28;20418;-40
2022/03/21 06:03:54;;;;;;;33.08;14.18;;;;;;;17.22;43.70;103169.78;5026574;28;20104;-40
2022/03/21 06:06:22;;;;;;;29.55;14.38;;;;;;;17.21;43.51;103170.75;5029632;28;20073;-40
2022/03/21 06:08:50;;;;;;;39.90;17.27;;;;;;;17.19;43.40;103171.78;5028667;28;20041;-40
2022/03/21 06:11:17;;;;;;;34.67;17.50;;;;;;;17.18;43.83;103181.66;5031546;28;20130;-40
2022/03/21 06:13:43;;;;;;;39.90;17.75;;;;;;;17.18;43.57;103178.97;5028294;28;20128;-40
2022/03/21 06:16:11;;;;;;;32.70;15.43;;;;;;;17.18;43.71;103188.84;5024885;28;20126;-40
2022/03/21 06:18:39;;;;;;;34.08;16.52;;;;;;;17.17;43.41;103184.44;5028553;28;20060;-40
2022/03/21 06:21:07;;;;;;;35.67;16.35;;;;;;;17.17;44.03;103189.78;5026595;28;20124;-41
2022/03/21 06:23:34;;;;;;;33.17;15.68;;;;;;;17.15;43.24;103194.38;5025606;28;20049;-41
2022/03/21 06:26:01;;;;;;;33.42;16.02;;;;;;;17.14;43.55;103198.88;5025774;28;20416;-40
2022/03/21 06:28:28;;;;;;;28.88;16.17;;;;;;;17.13;43.89;103199.84;5026051;28;20351;-40
2022/03/21 06:30:56;;;;;;;38.72;15.52;;;;;;;17.12;43.61;103200.75;5026713;28;20045;-40
2022/03/21 06:33:25;;;;;;;30.80;16.52;;;;;;;17.12;43.01;103210.63;5022519;28;20060;-40
2022/03/21 06:35:52;;;;;;;29.95;15.15;;;;;;;17.12;43.38;103213.31;5022950;28;20051;-40
2022/03/21 06:38:20;;;;;;;30.33;15.82;;;;;;;17.11;42.98;103206.22;5023504;28;20056;-40
2022/03/21 06:40:46;;;;;;;27.85;15.80;;;;;;;17.11;43.15;103209.75;5023560;28;20107;-40
2022/03/21 06:43:17;;;;;;;26.30;14.52;;;;;;;17.10;42.99;103217.91;5026935;28;20115;-40
2022/03/21 06:45:44;;;;;;;31.40;14.55;;;;;;;17.10;43.28;103217.91;5026669;28;20417;-40
2022/03/21 06:48:10;;;;;;;25.38;14.25;;;;;;;17.11;42.86;103224.97;5025913;28;20591;-40
2022/03/21 06:50:37;;;;;;;28.25;14.77;;;;;;;17.13;42.71;103223.09;5027614;28;20421;-40
2022/03/21 06:53:03;;;;;;;26.00;13.73;;;;;;;17.14;42.98;103227.50;5028005;28;20342;-40
2022/03/21 06:55:30;;;;;;;24.48;13.35;;;;;;;17.16;43.08;103226.41;5026628;28;20048;-40
2022/03/21 06:57:57;;;;;;;24.45;13.02;;;;;;;17.19;42.38;103223.56;5025689;28;20051;-40
2022/03/21 07:00:23;;;;;;;23.48;14.35;;;;;;;17.21;43.05;103231.53;5027505;28;20045;-40
2022/03/21 07:02:50;;;;;;;26.05;13.45;;;;;;;17.23;42.67;103229.63;5026622;28;20057;-40
2022/03/21 07:05:17;;;;;;;25.40;14.27;;;;;;;17.25;42.59;103227.72;5030263;28;20052;-40
2022/03/21 07:07:44;;;;;;;26.73;13.05;;;;;;;17.25;42.02;103233.94;5029489;28;20067;-40
2022/03/21 07:10:10;;;;;;;22.58;13.38;;;;;;;17.26;42.40;103224.94;5027615;28;20148;-40
2022/03/21 07:12:38;;;;;;;22.63;12.85;;;;;;;17.28;42.49;103236.44;5029694;28;20115;-40
2022/03/21 07:15:05;;;;;;;19.15;12.38;;;;;;;17.28;42.20;103238.25;5028932;28;20435;-40
2022/03/21 07:17:32;;;;;;;24.45;14.57;;;;;;;17.28;42.55;103238.25;5024836;28;20152;-40
2022/03/21 07:19:58;;;;;;;22.83;13.40;;;;;;;17.28;42.51;103243.59;5026871;28;20060;-41
2022/03/21 07:22:25;;;;;;;20.33;12.43;;;;;;;17.28;42.18;103239.09;5027685;28;20135;-40
2022/03/21 07:24:51;;;;;;;20.58;11.65;;;;;;;17.29;41.80;103250.72;5024512;28;20045;-40
2022/03/21 07:27:19;;;;;;;23.50;13.23;;;;;;;17.28;41.58;103249.81;5025458;28;20052;-40
2022/03/21 07:29:46;;;;;;;25.50;13.70;;;;;;;17.26;41.24;103250.88;5027980;28;20079;-40
2022/03/21 07:32:12;;;;;;;22.55;12.10;;;;;;;17.26;41.28;103253.56;5027793;28;20049;-40
2022/03/21 07:34:39;;;;;;;23.77;12.43;;;;;;;17.24;41.36;103247.41;5031448;28;20128;-40
2022/03/21 07:37:06;;;;;;;21.38;12.38;;;;;;;17.24;41.98;103258.13;5026934;28;20056;-40
2022/03/21 07:39:36;;;;;;;19.23;12.02;;;;;;;17.24;42.21;103250.09;5026788;28;20080;-40
2022/03/21 07:42:04;;;;;;;21.30;12.27;;;;;;;17.24;41.55;103253.63;5026816;28;20133;-40
2022/03/21 07:47:20;;;;;;;17.38;11.95;;;;;;;17.25;41.92;103259.88;5026058;28;20148;-40
2022/03/21 07:49:48;;;;;;;23.17;12.75;;;;;;;17.25;41.38;103258.06;5026654;28;20049;-40
2022/03/21 07:52:19;;;;;;;18.23;11.90;;;;;;;17.26;41.78;103256.25;5024877;28;20077;-40
2022/03/21 07:54:53;;;;;;;18.10;11.60;;;;;;;17.28;41.57;103263.22;5030287;28;20045;-40
2022/03/21 07:57:23;;;;;;;15.52;10.70;;;;;;;17.31;42.42;103264.00;5027309;28;20058;-40
2022/03/21 07:59:51;;;;;;;16.13;10.73;;;;;;;17.32;42.02;103269.28;5027646;28;20046;-43
2022/03/21 08:02:19;;;;;;;18.50;11.43;;;;;;;17.35;42.15;103266.41;5026808;28;20045;-39
2022/03/21 08:04:47;;;;;;;18.55;12.05;;;;;;;17.37;42.06;103263.66;5026357;28;20041;-39
2022/03/21 08:07:18;;;;;;;16.73;10.95;;;;;;;17.41;42.14;103267.91;5026807;28;20049;-39
2022/03/21 08:09:46;;;;;;;18.95;11.40;;;;;;;17.44;42.10;103275.75;5025956;28;20045;-39
2022/03/21 08:12:13;;;;;;;17.83;11.38;;;;;;;17.47;42.15;103267.53;5027184;28;20045;-39
2022/03/21 08:14:39;;;;;;;17.80;11.48;;;;;;;17.50;42.39;103262.84;5026733;28;20067;-40
2022/03/21 08:17:06;;;;;;;15.20;10.30;;;;;;;17.55;41.89;103270.59;5023677;28;20049;-39
2022/03/21 08:19:33;;;;;;;18.48;10.63;;;;;;;17.58;42.42;103273.13;5027667;28;20049;-40
2022/03/21 08:21:59;;;;;;;18.73;11.07;;;;;;;17.63;42.58;103271.00;5028153;28;20124;-40
2022/03/21 08:24:26;;;;;;;16.65;11.38;;;;;;;17.67;42.63;103277.06;5025856;28;20085;-40
2022/03/21 08:26:54;;;;;;;16.98;10.68;;;;;;;17.70;42.56;103280.44;5024569;28;20045;-40
2022/03/21 08:29:21;;;;;;;14.63;10.13;;;;;;;17.73;42.59;103272.19;5025827;28;20187;-39
2022/03/21 08:31:47;;;;;;;16.88;10.52;;;;;;;17.77;42.98;103278.28;5024853;28;20053;-39
2022/03/21 08:34:14;;;;;;;18.25;10.55;;;;;;;17.80;43.15;103267.34;5024698;28;20044;-39
2022/03/21 08:36:41;;;;;;;13.65;9.65;;;;;;;17.83;43.25;103271.66;5026327;28;20361;-39
2022/03/21 08:39:10;;;;;;;18.40;9.75;;;;;;;17.86;43.41;103275.03;5026199;28;20336;-39
2022/03/21 08:41:39;;;;;;;15.15;9.93;;;;;;;17.89;43.15;103277.53;5027040;28;20087;-39
2022/03/21 08:44:06;;;;;;;14.45;9.55;;;;;;;17.91;43.27;103266.69;5026324;28;20133;-39
2022/03/21 08:46:33;;;;;;;16.38;9.82;;;;;;;17.94;43.19;103270.06;5023046;28;20042;-39
2022/03/21 08:52:01;;;;;;;13.75;8.70;;;;;;;17.99;43.31;103265.28;5026641;28;20368;-39
2022/03/21 08:54:28;;;;;;;13.02;9.10;;;;;;;18.02;43.33;103266.91;5027253;28;20345;-39
2022/03/21 08:56:55;;;;;;;13.07;8.70;;;;;;;18.05;43.15;103268.53;5024892;28;20577;-39
2022/03/21 08:59:22;;;;;;;16.92;9.10;;;;;;;18.07;42.65;103263.94;5023902;28;20114;-40
2022/03/21 09:01:49;;;;;;;13.20;9.05;;;;;;;18.09;42.86;103270.06;5024322;28;20145;-41
2022/03/21 09:04:15;;;;;;;13.75;8.23;;;;;;;18.10;43.25;103259.25;5023325;28;20050;-40
2022/03/21 09:06:43;;;;;;;11.73;7.82;;;;;;;18.12;43.02;103260.00;5026157;28;20600;-40
2022/03/21 09:09:10;;;;;;;13.25;7.90;;;;;;;18.14;42.98;103260.78;5025029;28;20156;-40
2022/03/21 09:11:40;;;;;;;13.63;8.80;;;;;;;18.16;42.84;103264.22;5026992;28;20061;-40
2022/03/21 09:14:08;;;;;;;14.57;8.68;;;;;;;18.18;43.03;103261.47;5028384;28;20088;-40
2022/03/21 09:16:38;;;;;;;13.63;8.25;;;;;;;18.19;42.90;103261.34;5021840;28;20034;-40
2022/03/21 09:19:06;;;;;;;12.25;8.45;;;;;;;18.21;43.05;103263.94;5024340;28;20069;-40
2022/03/21 09:21:33;;;;;;;13.18;8.18;;;;;;;18.22;42.68;103258.47;5027664;28;20049;-40
2022/03/21 09:23:59;;;;;;;12.85;8.32;;;;;;;18.25;42.68;103257.41;5025316;28;20080;-41
2022/03/21 09:26:26;;;;;;;11.63;8.25;;;;;;;18.27;43.02;103260.03;5026247;28;20400;-40
2022/03/21 09:29:02;;;;;;;13.15;8.63;;;;;;;18.29;42.82;103258.09;5025637;28;20120;-40
2022/03/21 09:31:30;;;;;;;11.35;7.68;;;;;;;18.32;42.48;103247.16;5023221;28;20157;-40
2022/03/21 09:34:11;;;;;;;12.65;8.10;;;;;;;18.35;42.60;103246.97;5024786;28;20142;-41
2022/03/21 09:36:38;;;;;;;13.10;7.50;;;;;;;18.38;42.45;103253.00;5028116;28;20042;-41
2022/03/21 09:39:07;;;;;;;10.93;8.02;;;;;;;18.42;42.70;103248.31;5032782;28;20631;-40
2022/03/21 09:41:34;;;;;;;13.50;7.88;;;;;;;18.44;42.59;103252.59;5035076;28;20130;-40
2022/03/21 09:44:04;;;;;;;12.82;8.23;;;;;;;18.49;42.47;103255.00;5031333;28;20045;-40
2022/03/21 09:46:30;;;;;;;11.00;7.65;;;;;;;18.52;42.49;103253.94;5032243;28;20358;-41
2022/03/21 09:48:58;;;;;;;10.65;7.22;;;;;;;18.57;42.48;103254.50;5030330;28;20057;-40
2022/03/21 09:51:27;;;;;;;13.02;7.78;;;;;;;18.60;42.40;103257.00;5033111;28;20124;-40
2022/03/21 09:53:54;;;;;;;12.85;7.90;;;;;;;18.65;41.93;103252.19;5032345;28;20052;-41
2022/03/21 09:56:22;;;;;;;11.20;7.70;;;;;;;18.69;42.33;103251.94;5029416;28;20091;-41
2022/03/21 09:58:49;;;;;;;10.02;6.88;;;;;;;18.72;42.49;103251.72;5031793;28;20141;-41
2022/03/21 10:01:16;;;;;;;10.98;7.50;;;;;;;18.77;41.97;103253.25;5031036;28;20085;-39
2022/03/21 10:03:44;;;;;;;11.43;6.95;;;;;;;18.80;41.89;103240.50;5031543;28;20084;-39
2022/03/21 10:06:28;;;;;;;10.40;6.68;;;;;;;18.85;41.90;103250.94;5031431;28;20130;-39
2022/03/21 10:09:13;;;;;;;10.23;7.17;;;;;;;18.88;41.78;103246.22;5030188;28;20068;-40
2022/03/21 10:11:49;;;;;;;9.68;6.88;;;;;;;18.93;41.62;103248.59;5029694;28;20098;-40
2022/03/21 10:14:36;;;;;;;9.32;6.47;;;;;;;18.95;41.48;103241.31;5030760;28;20107;-40
2022/03/21 10:17:12;;;;;;;9.50;6.57;;;;;;;19.00;41.72;103241.88;5031186;28;20144;-40
2022/03/21 10:19:45;;;;;;;10.15;6.70;;;;;;;19.03;42.01;103246.19;5030250;28;20384;-40
2022/03/21 10:22:21;;;;;;;9.50;7.07;;;;;;;19.05;41.58;103242.41;5030912;28;20052;-40
2022/03/21 10:24:49;;;;;;;9.75;7.20;;;;;;;19.08;41.20;103242.22;5029411;28;20518;-40
2022/03/21 10:27:29;;;;;;;11.95;7.18;;;;;;;19.11;41.45;103243.84;5030221;28;20115;-40
2022/03/21 10:30:03;;;;;;;11.90;6.78;;;;;;;19.14;41.11;103240.97;5026071;28;20081;-40
2022/03/21 10:32:35;;;;;;;9.13;6.35;;;;;;;19.17;41.35;103246.13;5028602;28;20077;-40
2022/03/21 10:35:05;;;;;;;9.95;5.95;;;;;;;19.18;41.12;103243.34;5026918;28;20042;-40
2022/03/21 10:37:41;;;;;;;12.73;7.32;;;;;;;19.20;41.44;103241.41;5030355;28;20603;-40
2022/03/21 10:40:18;;;;;;;9.55;6.15;;;;;;;19.23;41.61;103243.03;5030247;28;20132;-40
2022/03/21 10:42:56;;;;;;;10.25;6.30;;;;;;;19.25;41.40;103243.78;5030195;28;20124;-40
2022/03/21 10:45:42;;;;;;;9.30;5.90;;;;;;;19.27;41.31;103241.84;5032103;28;20061;-40
2022/03/21 10:48:12;;;;;;;8.68;5.85;;;;;;;19.29;40.95;103239.91;5029560;28;20042;-40
2022/03/21 10:50:45;;;;;;;10.25;6.75;;;;;;;19.31;41.17;103238.00;5029663;28;20049;-40
2022/03/21 10:53:16;;;;;;;9.00;5.60;;;;;;;19.32;40.81;103242.41;5032095;28;20056;-41
2022/03/21 10:55:45;;;;;;;7.95;5.63;;;;;;;19.34;41.52;103237.81;5026479;28;20089;-41
2022/03/21 10:58:14;;;;;;;8.90;5.72;;;;;;;19.36;41.01;103233.16;5026124;28;20055;-41
2022/03/21 11:00:41;;;;;;;10.27;5.40;;;;;;;19.37;41.16;103240.25;5025432;28;20358;-40
2022/03/21 11:03:17;;;;;;;8.55;5.60;;;;;;;19.39;40.97;103232.09;5026286;28;20345;-41
2022/03/21 11:05:48;;;;;;;8.15;5.68;;;;;;;19.40;40.79;103231.13;5024798;28;20124;-40
2022/03/21 11:08:17;;;;;;;7.93;4.78;;;;;;;19.43;41.30;103228.25;5026822;28;20049;-40
2022/03/21 11:10:45;;;;;;;8.50;5.07;;;;;;;19.43;40.70;103221.03;5026440;28;20147;-41
2022/03/21 11:13:13;;;;;;;9.00;5.13;;;;;;;19.44;40.63;103222.75;5027852;28;20395;-41
2022/03/21 11:15:41;;;;;;;7.93;4.95;;;;;;;19.46;41.06;103219.97;5028100;28;20041;-41
2022/03/21 11:18:09;;;;;;;7.20;5.30;;;;;;;19.46;41.13;103228.91;5028999;28;20516;-41
2022/03/21 11:20:37;;;;;;;7.93;5.03;;;;;;;19.46;41.63;103220.81;5029635;28;20061;-41
2022/03/21 11:23:05;;;;;;;7.72;5.38;;;;;;;19.49;41.52;103219.72;5028284;28;20073;-40
2022/03/21 11:25:36;;;;;;;7.13;5.00;;;;;;;19.49;41.23;103225.13;5023689;28;20054;-41
2022/03/21 11:28:28;;;;;;;8.40;5.25;;;;;;;19.49;41.13;103217.03;5026914;28;20132;-40
2022/03/21 11:31:08;;;;;;;9.30;5.15;;;;;;;19.51;40.82;103208.88;5025399;28;20059;-41
2022/03/21 11:33:44;;;;;;;6.68;4.10;;;;;;;19.52;41.18;103210.59;5027870;28;20485;-40
2022/03/21 11:36:12;;;;;;;6.35;4.63;;;;;;;19.52;41.42;103208.78;5029020;28;20054;-41
2022/03/21 11:38:45;;;;;;;6.53;4.55;;;;;;;19.53;41.68;103204.25;5023103;28;20042;-41